Regional Weather

 

KMKL - Jackson, TN, USA
Distance from station: WNW 50mi, 81km
Updated: Wed, Feb-08-2023 5:42pm CST
Overcast
Overcast
 Wind from SSE
Wind: SSE 10 mph , 17 km/h
Temperature: 68°F , 20°C
Dew Point: 61°F , 16°C
Humidity: 78%
Barometer: 29.96 inHg , 1014.6 hPa
Clouds: Overcast
Visibility: 10 miles , 16 km
Cloud details: Mostly cloudy 2700 ft
Mostly cloudy 3300 ft
Overcast 8500 ft
2023/02/08 23:42 KMKL 082342Z 16009KT 10SM BKN027 BKN033 OVC085 20/16 A2996 RMK AO2 T02000156
KMEM - Memphis, TN, USA
Distance from station: W 108mi, 173km
Updated: Wed, Feb-08-2023 4:54pm CST
Mostly cloudy
Mostly cloudy
 Wind from SE
Wind: SE 9 mph , 15 km/h
Temperature: 72°F , 22°C
Dew Point: 63°F , 17°C
Humidity: 73%
Barometer: 29.92 inHg , 1013.2 hPa
Clouds: Mostly cloudy
Visibility: 10 miles , 16 km
Cloud details: Few Clouds 3600 ft
Partly cloudy 4600 ft
Mostly cloudy 9000 ft
Mostly cloudy 25000 ft
2023/02/08 22:54 KMEM 082254Z 14008KT 10SM FEW036 SCT046 BKN090 BKN250 22/17 A2992 RMK AO2 SLP130 T02170167 $
 
KBNA - Nashville, TN, USA
Distance from station: NE 97mi, 157km
Updated: Wed, Feb-08-2023 4:53pm CST
Mostly cloudy
Mostly cloudy
 Wind from ESE
Wind: ESE 7 mph , 11 km/h
Temperature: 64°F , 18°C
Dew Point: 57°F , 14°C
Humidity: 78%
Barometer: 30.09 inHg , 1019 hPa
Clouds: Mostly cloudy
Visibility: 10 miles , 16 km
Cloud details: Partly cloudy 3100 ft
Mostly cloudy 12000 ft
Mostly cloudy 20000 ft
2023/02/08 22:53 KBNA 082253Z 12006KT 10SM SCT031 BKN120 BKN200 18/14 A3009 RMK AO2 SLP186 T01830139
KCKV - Clarksville, TN, USA
Distance from station: NNE 99mi, 159km
Updated: Wed, Feb-08-2023 4:52pm CST
Mist, Overcast
Mist, Overcast
 Wind from ESE
Wind: ESE 10 mph , 17 km/h
Temperature: 61°F , 16°C
Dew Point: 55°F , 13°C
Humidity: 83%
Barometer: 30.02 inHg , 1016.6 hPa
Summary: Mist
Clouds: Overcast
Visibility: 6 miles , 10 km
Cloud details: Mostly cloudy 8500 ft
Overcast 11000 ft
2023/02/08 22:52 KCKV 082252Z AUTO 11009KT 6SM BR BKN085 OVC110 16/13 A3002 RMK AO2 RAE09B31E39 SLP163 P0001 T01560133
 
KPAH - Paducah, KY, USA
Distance from station: NNW 128mi, 205km
Updated: Wed, Feb-08-2023 5:28pm CST
Light rain, Mist, Overcast
Light rain, Mist, Overcast
 Wind from E
Wind: E 5 mph , 7 km/h
Temperature: 54°F , 12°C
Dew Point: 52°F , 11°C
Humidity: 94%
Barometer: 29.97 inHg , 1014.9 hPa
Summary: Light rain, Mist
Clouds: Overcast
Visibility: 6 miles , 10 km
Cloud details: Few Clouds 800 ft
Partly cloudy 1500 ft
Overcast 2300 ft
2023/02/08 23:28 KPAH 082328Z 09004KT 6SM -RA BR FEW008 SCT015 OVC023 12/11 A2997 RMK AO2 P0004 T01170106
KCHA - Chattanooga, TN, USA
Distance from station: E 165mi, 265km
Updated: Wed, Feb-08-2023 4:53pm CST
Mostly cloudy
Mostly cloudy
 Wind from N
Wind: N 7 mph , 11 km/h
Temperature: 63°F , 17°C
Dew Point: 54°F , 12°C
Humidity: 73%
Barometer: 30.18 inHg , 1022 hPa
Clouds: Mostly cloudy
Visibility: 10 miles , 16 km
Cloud details: Few Clouds 4900 ft
Mostly cloudy 10000 ft
Mostly cloudy 25000 ft
2023/02/08 22:53 KCHA 082253Z 35006KT 10SM FEW049 BKN100 BKN250 17/12 A3018 RMK AO2 SLP216 T01720117
 
KTYS - Knoxville, TN, USA
Distance from station: E 234mi, 377km
Updated: Wed, Feb-08-2023 4:53pm CST
Overcast
Overcast
 Wind from NNE
Wind: NNE 5 mph , 7 km/h
Temperature: 54°F , 12°C
Dew Point: 48°F , 9°C
Humidity: 82%
Barometer: 30.20 inHg , 1022.7 hPa
Clouds: Overcast
Visibility: 10 miles , 16 km
Cloud details: Few Clouds 2600 ft
Mostly cloudy 4800 ft
Mostly cloudy 13000 ft
Overcast 25000 ft
2023/02/08 22:53 KTYS 082253Z 03004KT 10SM FEW026 BKN048 BKN130 OVC250 12/09 A3020 RMK AO2 SLP225 T01220089
KLIT - Little Rock, AR, USA
Distance from station: W 240mi, 386km
Updated: Wed, Feb-08-2023 4:53pm CST
Light rain, Overcast
Light rain, Overcast
 Wind from N
Wind: N 5 mph , 7 km/h
Temperature: 55°F , 13°C
Dew Point: 52°F , 11°C
Humidity: 88%
Barometer: 29.87 inHg , 1011.5 hPa
Summary: Light rain
Clouds: Overcast
Visibility: 10 miles , 16 km
Cloud details: Few Clouds 2600 ft
Mostly cloudy 7000 ft
Overcast 9500 ft
2023/02/08 22:53 KLIT 082253Z 01004KT 10SM -RA FEW026 BKN070 OVC095 13/11 A2987 RMK AO2 RAB00 SLP117 P0013 T01280111

Refresh Page for latest data.